Time;durP1;ratioP1;P1;durP2;ratioP2;P2;SDS_P1;SDS_P2;PMS_P1;PMS_P2;Temp;Humidity;BMP_temperature;BMP_pressure;BME280_temperature;BME280_humidity;BME280_pressure;Samples;Min_cycle;Max_cycle;Signal;HPM_P1;HPM_P2
2021/12/11 00:00:40;;;;;;;74.70;33.00;;;;;;;-0.86;63.36;99131.66;5089735;28;20113;-70
2021/12/11 00:03:12;;;;;;;89.88;36.05;;;;;;;-0.82;63.45;99140.13;5090601;28;20044;-71
2021/12/11 00:05:40;;;;;;;94.10;37.35;;;;;;;-0.81;63.46;99136.63;5089537;28;20094;-71
2021/12/11 00:08:10;;;;;;;88.35;35.53;;;;;;;-0.81;63.45;99147.00;5089076;28;20127;-72
2021/12/11 00:10:43;;;;;;;93.68;35.20;;;;;;;-0.83;63.63;99149.66;5089843;28;20044;-71
2021/12/11 00:13:17;;;;;;;73.28;32.42;;;;;;;-0.85;63.60;99154.06;5087562;28;20083;-70
2021/12/11 00:15:47;;;;;;;78.75;37.28;;;;;;;-0.86;63.79;99149.78;5087399;28;20052;-71
2021/12/11 00:18:19;;;;;;;80.03;35.75;;;;;;;-0.89;63.45;99149.09;5087267;28;20510;-71
2021/12/11 00:20:55;;;;;;;81.78;35.90;;;;;;;-0.91;63.76;99161.28;5087855;28;20123;-71
2021/12/11 00:23:28;;;;;;;88.50;35.92;;;;;;;-0.92;63.57;99157.00;5097758;28;20051;-71
2021/12/11 00:25:57;;;;;;;89.10;37.03;;;;;;;-0.94;63.90;99161.41;5100886;28;20059;-71
2021/12/11 00:28:25;;;;;;;86.70;38.42;;;;;;;-0.91;63.79;99163.88;5104414;28;20286;-71
2021/12/11 00:30:52;;;;;;;101.07;37.67;;;;;;;-0.86;63.65;99161.94;5095837;28;20046;-70
2021/12/11 00:33:24;;;;;;;90.15;34.25;;;;;;;-0.82;63.65;99160.88;5072037;28;20411;-71
2021/12/11 00:35:56;;;;;;;88.88;32.38;;;;;;;-0.83;63.76;99170.41;5087974;28;20079;-70
2021/12/11 00:38:32;;;;;;;82.53;35.90;;;;;;;-0.83;63.42;99170.41;5071246;28;20044;-70
2021/12/11 00:41:03;;;;;;;94.38;34.58;;;;;;;-0.80;63.43;99169.44;5087976;28;20048;-71
2021/12/11 00:43:34;;;;;;;94.32;36.22;;;;;;;-0.81;63.77;99183.28;5089745;28;20056;-70
2021/12/11 00:46:04;;;;;;;81.65;33.88;;;;;;;-0.81;63.36;99180.69;5088592;28;20120;-70
2021/12/11 00:48:32;;;;;;;85.68;34.30;;;;;;;-0.80;63.61;99182.38;5087826;28;20117;-70
2021/12/11 00:51:03;;;;;;;80.95;29.88;;;;;;;-0.80;63.74;99180.63;5088297;28;20055;-70
2021/12/11 00:53:36;;;;;;;70.10;28.60;;;;;;;-0.85;63.52;99186.94;5087705;28;20059;-72
2021/12/11 00:56:10;;;;;;;69.63;31.38;;;;;;;-0.88;63.73;99184.44;5087225;28;20052;-70
2021/12/11 00:58:39;;;;;;;81.05;30.67;;;;;;;-0.88;63.46;99184.44;5087439;28;20051;-70
2021/12/11 01:01:12;;;;;;;76.90;29.98;;;;;;;-0.88;63.53;99180.13;5088024;28;20051;-70
2021/12/11 01:03:49;;;;;;;68.45;30.95;;;;;;;-0.92;63.84;99177.72;5088878;28;20052;-70
2021/12/11 01:06:19;;;;;;;76.72;31.52;;;;;;;-0.92;63.81;99182.91;5088253;28;20207;-70
2021/12/11 01:08:52;;;;;;;82.90;30.23;;;;;;;-0.98;63.73;99184.00;5084833;28;20066;-68
2021/12/11 01:11:25;;;;;;;72.38;31.02;;;;;;;-1.04;63.66;99190.31;5086434;28;20101;-70
2021/12/11 01:14:07;;;;;;;78.40;31.75;;;;;;;-1.06;63.68;99193.84;5085806;28;20059;-69
2021/12/11 01:16:36;;;;;;;81.55;31.02;;;;;;;-1.09;63.90;99200.00;5084979;28;20044;-68
2021/12/11 01:19:06;;;;;;;68.97;30.30;;;;;;;-1.09;64.05;99194.00;5084715;28;20558;-69
2021/12/11 01:21:45;;;;;;;69.35;27.38;;;;;;;-1.13;63.57;99208.84;5086506;28;20083;-69
2021/12/11 01:24:28;;;;;;;58.20;27.08;;;;;;;-1.18;63.75;99205.59;5084780;28;20075;-69
2021/12/11 01:26:59;;;;;;;62.17;26.83;;;;;;;-1.24;63.91;99200.63;5083345;28;20052;-70
2021/12/11 01:29:28;;;;;;;67.53;27.10;;;;;;;-1.33;64.12;99203.59;5085611;28;20048;-70
2021/12/11 01:31:56;;;;;;;75.68;28.95;;;;;;;-1.29;63.90;99205.19;5085922;28;20502;-70
2021/12/11 01:34:24;;;;;;;62.45;27.92;;;;;;;-1.25;63.76;99215.34;5085837;28;20066;-69
2021/12/11 01:36:52;;;;;;;72.57;28.92;;;;;;;-1.25;63.76;99220.53;5085066;28;20055;-70
2021/12/11 01:39:25;;;;;;;72.28;29.58;;;;;;;-1.32;63.99;99220.84;5085892;28;20056;-71
2021/12/11 01:41:56;;;;;;;71.80;30.63;;;;;;;-1.35;63.92;99234.78;5085956;28;20056;-71
2021/12/11 01:44:29;;;;;;;75.10;27.52;;;;;;;-1.35;63.95;99240.78;5095373;28;20063;-70
2021/12/11 01:47:00;;;;;;;81.28;30.52;;;;;;;-1.27;63.69;99242.22;5088758;28;20480;-70
2021/12/11 01:49:27;;;;;;;65.68;29.08;;;;;;;-1.17;63.64;99238.34;5085792;28;20056;-70
2021/12/11 01:51:57;;;;;;;98.13;35.42;;;;;;;-1.10;63.65;99242.38;5085399;28;20055;-70
2021/12/11 01:54:31;;;;;;;90.15;39.45;;;;;;;-1.01;63.51;99249.78;5086073;28;20092;-71
2021/12/11 01:57:02;;;;;;;105.68;40.75;;;;;;;-0.91;63.46;99249.41;5084098;28;20040;-69
2021/12/11 01:59:34;;;;;;;91.07;33.92;;;;;;;-0.90;63.68;99241.56;5084932;28;20097;-70
2021/12/11 02:02:05;;;;;;;99.07;33.85;;;;;;;-0.88;63.27;99246.66;5085599;28;20040;-71
2021/12/11 02:04:35;;;;;;;86.18;32.75;;;;;;;-0.84;63.36;99251.69;5084812;28;20101;-71
2021/12/11 02:07:05;;;;;;;118.68;39.30;;;;;;;-0.75;63.28;99262.59;5085837;28;20052;-70
2021/12/11 02:09:35;;;;;;;108.47;38.03;;;;;;;-0.73;63.14;99264.19;5086113;28;20095;-71
2021/12/11 02:12:09;;;;;;;96.63;34.70;;;;;;;-0.83;63.43;99263.75;5084739;28;20044;-71
2021/12/11 02:14:44;;;;;;;94.25;33.42;;;;;;;-0.92;63.61;99260.66;5085094;28;20276;-71
2021/12/11 02:17:18;;;;;;;108.28;40.35;;;;;;;-0.89;63.52;99263.16;5085288;28;20101;-71
2021/12/11 02:19:47;;;;;;;102.22;39.55;;;;;;;-0.81;63.58;99267.13;5084255;28;20040;-71
2021/12/11 02:22:20;;;;;;;83.53;32.40;;;;;;;-0.73;63.43;99266.78;5085658;28;20046;-70
2021/12/11 02:24:49;;;;;;;88.63;33.22;;;;;;;-0.70;63.20;99269.25;5086357;28;20044;-70
2021/12/11 02:27:21;;;;;;;91.95;36.65;;;;;;;-0.69;63.46;99268.34;5083539;28;20054;-71
2021/12/11 02:29:52;;;;;;;103.03;37.47;;;;;;;-0.65;63.51;99271.63;5084617;28;20117;-70
2021/12/11 02:32:28;;;;;;;95.28;32.88;;;;;;;-0.70;63.40;99269.25;5084817;28;20076;-71
2021/12/11 02:34:58;;;;;;;85.05;35.15;;;;;;;-0.67;63.24;99278.66;5084085;28;20403;-70
2021/12/11 02:37:37;;;;;;;103.20;40.38;;;;;;;-0.61;63.13;99278.41;5085654;28;20050;-70
2021/12/11 02:40:11;;;;;;;103.32;40.38;;;;;;;-0.54;63.44;99286.75;5084841;28;20079;-71
2021/12/11 02:42:43;;;;;;;88.13;37.83;;;;;;;-0.50;63.25;99294.34;5085045;28;20411;-70
2021/12/11 02:45:16;;;;;;;92.57;39.03;;;;;;;-0.46;63.10;99298.47;5085307;28;20078;-71
2021/12/11 02:47:48;;;;;;;97.30;40.58;;;;;;;-0.42;63.16;99300.03;5085037;28;20055;-70
2021/12/11 02:50:20;;;;;;;91.30;33.90;;;;;;;-0.41;63.20;99299.13;5089372;28;20040;-71
2021/12/11 02:52:53;;;;;;;97.10;36.08;;;;;;;-0.32;62.86;99305.69;5089897;28;20556;-71
2021/12/11 02:55:24;;;;;;;102.78;37.78;;;;;;;-0.30;62.81;99298.69;5087159;28;20208;-71
2021/12/11 02:57:55;;;;;;;81.22;31.95;;;;;;;-0.36;63.08;99311.94;5085905;28;20048;-69
2021/12/11 03:00:26;;;;;;;90.22;35.40;;;;;;;-0.41;63.08;99317.28;5088563;28;20052;-70
2021/12/11 03:03:01;;;;;;;78.00;34.97;;;;;;;-0.46;63.12;99318.41;5088594;28;20044;-70
2021/12/11 03:05:37;;;;;;;73.95;31.88;;;;;;;-0.54;63.26;99323.91;5088831;28;20075;-71
2021/12/11 03:08:08;;;;;;;88.88;36.55;;;;;;;-0.49;63.30;99308.97;5091075;28;20084;-72
2021/12/11 03:10:36;;;;;;;83.55;34.60;;;;;;;-0.51;63.26;99313.41;5088980;28;20040;-71
2021/12/11 03:13:05;;;;;;;92.72;39.92;;;;;;;-0.53;63.17;99311.78;5088712;28;20075;-71
2021/12/11 03:15:32;;;;;;;83.70;35.97;;;;;;;-0.55;63.26;99318.78;5088901;28;20132;-71
2021/12/11 03:18:01;;;;;;;86.95;33.50;;;;;;;-0.55;63.09;99324.81;5088371;28;20062;-71
2021/12/11 03:20:28;;;;;;;93.38;36.55;;;;;;;-0.52;63.19;99318.66;5088362;28;20052;-72
2021/12/11 03:22:55;;;;;;;97.10;35.67;;;;;;;-0.50;62.84;99328.06;5087986;28;20143;-70
2021/12/11 03:25:26;;;;;;;98.15;37.15;;;;;;;-0.57;63.13;99320.63;5088912;28;20044;-71
2021/12/11 03:27:54;;;;;;;95.03;37.85;;;;;;;-0.70;63.00;99321.13;5089976;28;20408;-71
2021/12/11 03:30:24;;;;;;;92.07;36.63;;;;;;;-0.78;63.47;99330.94;5087986;28;20484;-69
2021/12/11 03:32:53;;;;;;;97.00;38.42;;;;;;;-0.83;63.53;99327.69;5087915;28;20070;-72
2021/12/11 03:35:20;;;;;;;115.80;39.63;;;;;;;-0.84;63.51;99323.44;5087990;28;20046;-70
2021/12/11 03:37:48;;;;;;;86.00;36.35;;;;;;;-0.83;63.70;99325.09;5087886;28;20081;-72
2021/12/11 03:40:15;;;;;;;99.15;37.88;;;;;;;-0.84;63.38;99326.03;5087549;28;20040;-71
2021/12/11 03:42:47;;;;;;;101.68;36.40;;;;;;;-0.82;63.73;99326.81;5087617;28;20506;-71
2021/12/11 03:45:18;;;;;;;108.65;39.97;;;;;;;-0.78;63.37;99336.13;5087841;28;20051;-71
2021/12/11 03:47:49;;;;;;;104.28;37.35;;;;;;;-0.71;63.33;99337.56;5088598;28;20048;-72
2021/12/11 03:50:18;;;;;;;102.28;41.67;;;;;;;-0.63;63.00;99350.22;5087827;28;20147;-70
2021/12/11 03:52:49;;;;;;;113.38;44.95;;;;;;;-0.63;63.33;99351.06;5086818;28;20046;-71
2021/12/11 03:55:18;;;;;;;113.13;46.20;;;;;;;-0.67;63.09;99354.69;5090089;28;20060;-73
2021/12/11 03:57:47;;;;;;;116.63;40.55;;;;;;;-0.74;63.30;99355.84;5085877;28;20050;-71
2021/12/11 04:00:19;;;;;;;95.72;38.85;;;;;;;-0.74;63.52;99360.19;5086745;28;20076;-71
2021/12/11 04:02:47;;;;;;;92.40;36.78;;;;;;;-0.76;63.63;99365.44;5087090;28;20136;-72
2021/12/11 04:05:14;;;;;;;83.97;35.72;;;;;;;-0.75;63.69;99374.91;5088682;28;20139;-70
2021/12/11 04:07:44;;;;;;;87.80;38.13;;;;;;;-0.77;63.64;99371.53;5087947;28;20058;-70
2021/12/11 04:10:14;;;;;;;97.25;38.78;;;;;;;-0.75;63.59;99377.50;5087107;28;20062;-70
2021/12/11 04:12:42;;;;;;;89.15;33.38;;;;;;;-0.76;63.81;99383.56;5086432;28;20043;-70
2021/12/11 04:15:11;;;;;;;80.35;32.00;;;;;;;-0.72;63.60;99373.94;5087879;28;20044;-70
2021/12/11 04:17:39;;;;;;;66.45;31.40;;;;;;;-0.74;63.70;99371.38;5087933;28;20123;-70
2021/12/11 04:20:10;;;;;;;81.43;34.35;;;;;;;-0.74;63.79;99368.78;5069884;28;20070;-70
2021/12/11 04:22:37;;;;;;;70.97;32.75;;;;;;;-0.75;63.92;99359.34;5089365;28;20126;-70
2021/12/11 04:25:05;;;;;;;87.82;33.35;;;;;;;-0.79;63.73;99368.16;5069834;28;20586;-72
2021/12/11 04:27:34;;;;;;;69.55;30.08;;;;;;;-0.84;64.01;99368.34;5085245;28;20130;-69
2021/12/11 04:30:04;;;;;;;86.45;35.90;;;;;;;-0.88;63.81;99366.78;5068371;28;20504;-70
2021/12/11 04:32:33;;;;;;;78.15;32.95;;;;;;;-0.90;63.54;99365.13;5087177;28;20431;-67
2021/12/11 04:35:01;;;;;;;73.85;31.77;;;;;;;-0.95;64.09;99370.53;5086594;28;20635;-69
2021/12/11 04:37:30;;;;;;;73.03;33.63;;;;;;;-1.00;63.86;99365.50;5087516;28;20127;-69
2021/12/11 04:40:05;;;;;;;73.47;30.67;;;;;;;-1.05;64.03;99376.97;5068009;28;20044;-70
2021/12/11 04:42:47;;;;;;;75.63;35.08;;;;;;;-1.05;64.17;99385.56;5086242;28;20127;-69
2021/12/11 04:45:18;;;;;;;63.70;31.25;;;;;;;-1.08;63.96;99370.16;5087410;28;20054;-69
2021/12/11 04:47:51;;;;;;;77.88;30.85;;;;;;;-1.13;64.29;99374.66;5086304;28;20118;-70
2021/12/11 04:50:27;;;;;;;76.22;30.30;;;;;;;-1.16;64.36;99375.63;5086298;28;20197;-69
2021/12/11 04:52:55;;;;;;;;;;;;;;;-1.00;63.70;99385.41;5086746;28;20059;-68
2021/12/11 04:55:39;;;;;;;49.97;23.80;;;;;;;-1.12;63.84;99385.88;5085901;28;19920;-70
2021/12/11 04:58:39;;;;;;;59.63;24.75;;;;;;;-1.10;64.17;99399.59;5084881;28;20111;-71
2021/12/11 05:01:25;;;;;;;61.50;27.70;;;;;;;-1.00;64.11;99403.53;5086639;28;20052;-72
2021/12/11 05:04:15;;;;;;;57.45;25.88;;;;;;;-0.94;63.89;99411.06;5086970;28;20127;-73
2021/12/11 05:06:52;;;;;;;66.03;29.50;;;;;;;-0.85;63.99;99417.66;5087439;28;20048;-72
2021/12/11 05:09:36;;;;;;;69.97;28.40;;;;;;;-0.71;63.58;99417.94;5087519;28;20051;-73
2021/12/11 05:15:07;;;;;;;48.20;23.10;;;;;;;-0.54;63.49;99426.81;5085278;27;2884470;-72
2021/12/11 05:17:35;;;;;;;55.03;23.73;;;;;;;-0.51;63.20;99429.28;5165336;27;20054;-70
2021/12/11 05:20:02;;;;;;;50.22;22.00;;;;;;;-0.44;63.10;99435.91;5165423;27;20129;-69
2021/12/11 05:22:29;;;;;;;54.28;26.40;;;;;;;-0.39;63.33;99449.56;5164377;27;20042;-74
2021/12/11 05:24:57;;;;;;;47.22;23.73;;;;;;;-0.30;63.10;99450.94;5146387;27;20076;-70
2021/12/11 05:27:25;;;;;;;59.17;28.60;;;;;;;-0.24;63.22;99445.47;5164166;27;20046;-70
2021/12/11 05:29:52;;;;;;;88.60;31.40;;;;;;;-0.20;62.96;99441.84;5166727;27;20065;-71
2021/12/11 05:32:24;;;;;;;99.65;38.13;;;;;;;-0.13;63.27;99455.41;5165756;27;20043;-70
2021/12/11 05:34:55;;;;;;;93.05;41.13;;;;;;;-0.13;62.94;99465.81;5166068;27;20659;-72
2021/12/11 05:37:22;;;;;;;90.30;41.28;;;;;;;-0.10;62.87;99470.88;5165628;27;20055;-71
2021/12/11 05:39:50;;;;;;;100.40;40.00;;;;;;;-0.06;62.67;99462.03;5165475;27;20043;-71
2021/12/11 05:42:17;;;;;;;99.95;40.70;;;;;;;-0.01;62.78;99471.31;5165052;27;20049;-69
2021/12/11 05:44:45;;;;;;;93.10;40.25;;;;;;;0.02;62.38;99479.88;5166014;27;20053;-70
2021/12/11 05:47:12;;;;;;;92.00;43.00;;;;;;;0.07;62.25;99477.94;5165466;27;20093;-69
2021/12/11 05:49:43;;;;;;;104.15;43.05;;;;;;;0.09;62.26;99487.38;5165795;27;20043;-68
2021/12/11 05:52:12;;;;;;;97.45;44.15;;;;;;;0.11;62.25;99488.16;5112211;27;20050;-69
2021/12/11 05:54:43;;;;;;;104.32;38.95;;;;;;;0.12;62.10;99487.22;5165220;27;20038;-70
2021/12/11 05:57:12;;;;;;;107.00;43.03;;;;;;;0.12;62.36;99489.81;5163758;27;20042;-69
2021/12/11 05:59:41;;;;;;;123.22;49.72;;;;;;;0.13;62.40;99481.16;5165289;27;20123;-71
2021/12/11 06:02:11;;;;;;;111.05;41.25;;;;;;;0.13;62.57;99495.88;5165402;27;20125;-68
2021/12/11 06:04:42;;;;;;;119.40;46.53;;;;;;;0.10;62.33;99507.22;5165260;27;20102;-69
2021/12/11 06:07:12;;;;;;;116.05;50.70;;;;;;;0.11;62.46;99508.94;5166493;27;20565;-69
2021/12/11 06:09:42;;;;;;;119.30;47.90;;;;;;;0.14;62.63;99507.94;5165998;27;20056;-69
2021/12/11 06:12:13;;;;;;;109.13;42.50;;;;;;;0.19;62.38;99521.59;5166961;27;20046;-70
2021/12/11 06:14:43;;;;;;;104.75;44.08;;;;;;;0.23;62.03;99515.34;5166500;27;20050;-72
2021/12/11 06:17:13;;;;;;;123.13;48.22;;;;;;;0.14;62.16;99516.56;5167609;27;20046;-69
2021/12/11 06:19:49;;;;;;;119.60;53.78;;;;;;;0.11;62.64;99526.25;5167564;27;20482;-70
2021/12/11 06:22:16;;;;;;;119.93;45.10;;;;;;;0.13;62.52;99520.09;5167338;27;20126;-70
2021/12/11 06:24:43;;;;;;;114.00;42.97;;;;;;;0.15;62.27;99518.28;5163313;27;20045;-70
2021/12/11 06:27:10;;;;;;;95.97;43.03;;;;;;;0.21;62.40;99540.53;5150460;27;20113;-70
2021/12/11 06:29:40;;;;;;;99.13;40.17;;;;;;;0.29;62.14;99535.03;5159964;27;20035;-69
2021/12/11 06:32:08;;;;;;;94.70;41.45;;;;;;;0.26;62.25;99530.81;5165016;27;20050;-72
2021/12/11 06:34:36;;;;;;;98.00;43.88;;;;;;;0.20;62.46;99533.69;5170531;27;20104;-71
2021/12/11 06:37:09;;;;;;;96.50;39.38;;;;;;;0.15;62.45;99533.84;5168746;27;21012;-72
2021/12/11 06:39:37;;;;;;;107.55;45.33;;;;;;;0.21;62.72;99539.72;5171536;27;20049;-73
2021/12/11 06:42:09;;;;;;;99.70;41.90;;;;;;;0.27;62.56;99542.03;5173819;27;20027;-75
2021/12/11 06:44:36;;;;;;;84.38;41.28;;;;;;;0.29;62.58;99545.41;5172787;27;20047;-74
2021/12/11 06:47:09;;;;;;;111.03;50.78;;;;;;;0.33;62.80;99542.63;5171287;27;20191;-73
2021/12/11 06:49:41;;;;;;;101.22;47.15;;;;;;;0.36;62.59;99545.13;5169355;27;20210;-71
2021/12/11 06:52:17;;;;;;;95.47;42.58;;;;;;;0.42;62.26;99545.78;5168354;27;20043;-73
2021/12/11 06:54:44;;;;;;;99.45;41.85;;;;;;;0.41;62.25;99539.72;5164341;27;20125;-71
2021/12/11 06:57:12;;;;;;;99.32;45.00;;;;;;;0.51;62.38;99543.63;5162960;27;20114;-71
2021/12/11 06:59:39;;;;;;;87.45;37.17;;;;;;;0.62;62.31;99539.72;5162314;27;20067;-73
2021/12/11 07:02:07;;;;;;;79.75;36.40;;;;;;;0.71;62.37;99547.13;5162596;27;20527;-70
2021/12/11 07:04:34;;;;;;;91.63;39.85;;;;;;;0.81;62.10;99552.75;5164401;27;20081;-73
2021/12/11 07:07:02;;;;;;;88.43;38.65;;;;;;;0.86;62.04;99556.00;5160824;27;20106;-72
2021/12/11 07:09:31;;;;;;;111.60;42.22;;;;;;;0.86;61.97;99556.00;5161754;27;20106;-72
2021/12/11 07:11:59;;;;;;;106.05;44.72;;;;;;;0.92;62.24;99558.34;5158647;27;20053;-70
2021/12/11 07:14:29;;;;;;;91.28;43.03;;;;;;;1.01;62.00;99564.88;5129938;27;20760;-71
2021/12/11 07:16:58;;;;;;;105.25;46.60;;;;;;;1.00;62.01;99571.00;5130519;27;20047;-73
2021/12/11 07:19:25;;;;;;;92.15;43.63;;;;;;;1.01;61.93;99567.47;5127192;27;20047;-72
2021/12/11 07:21:54;;;;;;;98.15;44.88;;;;;;;1.05;61.98;99571.66;5127409;27;20269;-72
2021/12/11 07:24:27;;;;;;;102.68;42.25;;;;;;;1.18;61.86;99577.16;5127213;27;20116;-71
2021/12/11 07:26:55;;;;;;;105.18;45.40;;;;;;;1.31;61.72;99584.34;5125260;27;20050;-73
2021/12/11 07:29:23;;;;;;;84.57;40.72;;;;;;;1.41;61.59;99578.72;5127247;27;20498;-72
2021/12/11 07:31:51;;;;;;;74.95;34.97;;;;;;;1.45;61.43;99590.66;5126411;27;20047;-71
2021/12/11 07:34:19;;;;;;;84.97;37.17;;;;;;;1.44;61.56;99589.84;5126904;27;20075;-69
2021/12/11 07:36:46;;;;;;;71.78;36.92;;;;;;;1.37;61.67;99588.41;5125895;27;20136;-73
2021/12/11 07:39:16;;;;;;;94.10;37.95;;;;;;;1.38;61.96;99597.06;5132012;27;20471;-71
2021/12/11 07:41:44;;;;;;;79.05;37.25;;;;;;;1.50;61.92;99594.75;5128763;27;20070;-72
2021/12/11 07:44:13;;;;;;;81.50;35.72;;;;;;;1.64;61.55;99601.06;5132008;27;20049;-72
2021/12/11 07:46:41;;;;;;;85.97;35.72;;;;;;;1.76;61.49;99602.25;5130737;27;20057;-72
2021/12/11 07:49:09;;;;;;;83.63;37.78;;;;;;;1.84;61.52;99602.75;5124204;27;20067;-72
2021/12/11 07:51:38;;;;;;;85.25;37.33;;;;;;;1.88;61.33;99604.28;5139509;27;20497;-72
2021/12/11 07:54:07;;;;;;;97.25;39.60;;;;;;;1.96;61.36;99609.97;5141115;27;20039;-72
2021/12/11 07:56:35;;;;;;;99.50;40.33;;;;;;;2.05;61.29;99619.13;5133949;27;20039;-71
2021/12/11 07:59:04;;;;;;;87.53;37.58;;;;;;;2.11;61.26;99616.22;5136140;27;20049;-70
2021/12/11 08:01:38;;;;;;;83.80;38.85;;;;;;;2.16;61.33;99624.69;5133730;27;20039;-70
2021/12/11 08:04:07;;;;;;;82.07;38.03;;;;;;;2.23;61.27;99630.41;5132019;27;20099;-71
2021/12/11 08:06:36;;;;;;;79.97;38.58;;;;;;;2.30;61.11;99629.19;5133370;27;20068;-72
2021/12/11 08:09:05;;;;;;;83.30;35.88;;;;;;;2.35;60.99;99624.63;5135230;27;20126;-72
2021/12/11 08:11:32;;;;;;;89.53;39.58;;;;;;;2.41;61.07;99624.34;5135847;27;20676;-70
2021/12/11 08:14:00;;;;;;;82.50;38.35;;;;;;;2.34;61.23;99635.13;5132086;27;20055;-73
2021/12/11 08:16:35;;;;;;;77.90;36.53;;;;;;;2.21;61.65;99637.47;5134137;27;20490;-75
2021/12/11 08:19:06;;;;;;;101.10;38.50;;;;;;;2.17;61.71;99646.34;5134714;27;20199;-75
2021/12/11 08:21:35;;;;;;;91.07;43.35;;;;;;;2.23;61.72;99646.06;5125402;27;20443;-73
2021/12/11 08:24:05;;;;;;;93.45;42.88;;;;;;;2.39;61.51;99647.00;5124782;27;20210;-73
2021/12/11 08:26:34;;;;;;;87.93;40.15;;;;;;;2.48;61.23;99650.94;5123727;27;20043;-76
2021/12/11 08:29:02;;;;;;;97.00;46.15;;;;;;;2.57;61.25;99647.03;5131436;27;20067;-71
2021/12/11 08:31:29;;;;;;;96.05;43.20;;;;;;;2.65;61.04;99652.72;5131705;27;20049;-73
2021/12/11 08:33:56;;;;;;;82.10;41.03;;;;;;;2.70;60.97;99652.47;5137616;27;20053;-75
2021/12/11 08:36:28;;;;;;;91.80;41.45;;;;;;;2.74;61.09;99646.19;5135365;27;20053;-74
2021/12/11 08:38:56;;;;;;;88.85;39.10;;;;;;;2.76;60.99;99647.81;5122963;27;20171;-75
2021/12/11 08:41:27;;;;;;;89.93;38.13;;;;;;;2.76;61.30;99657.41;5129103;27;20608;-72
2021/12/11 08:44:00;;;;;;;94.45;40.08;;;;;;;2.72;61.25;99663.66;5121942;27;20043;-73
2021/12/11 08:46:30;;;;;;;85.75;40.05;;;;;;;2.63;61.30;99660.63;5127036;27;20035;-74
2021/12/11 08:48:59;;;;;;;77.13;38.15;;;;;;;2.55;61.52;99674.94;5115363;27;20055;-75
2021/12/11 08:51:32;;;;;;;106.95;44.58;;;;;;;2.62;61.80;99669.34;5138948;27;20044;-75
2021/12/11 08:54:00;;;;;;;112.05;51.63;;;;;;;2.66;61.56;99685.69;5136820;27;20093;-71
2021/12/11 08:56:28;;;;;;;110.00;52.28;;;;;;;2.78;61.42;99686.84;5133913;27;20636;-71
2021/12/11 08:58:57;;;;;;;100.03;46.33;;;;;;;2.89;61.48;99681.09;5130406;27;20177;-73
2021/12/11 09:01:31;;;;;;;105.10;44.67;;;;;;;3.01;61.21;99680.50;5139453;27;20054;-79
2021/12/11 09:04:02;;;;;;;72.93;32.13;;;;;;;3.03;61.06;99689.09;5126534;27;20120;-73
2021/12/11 09:06:36;;;;;;;94.55;41.22;;;;;;;3.00;61.33;99715.31;5120543;27;20045;-78
2021/12/11 09:09:08;;;;;;;87.50;41.38;;;;;;;2.94;61.50;99718.25;5128308;27;20058;-75
2021/12/11 09:11:40;;;;;;;75.22;37.85;;;;;;;2.90;61.40;99721.91;5124290;27;20063;-79
2021/12/11 09:14:11;;;;;;;89.47;41.33;;;;;;;2.91;61.46;99723.59;5126115;27;20055;-72
2021/12/11 09:16:43;;;;;;;95.47;43.25;;;;;;;2.97;61.48;99725.91;5110850;27;20074;-76
2021/12/11 09:19:14;;;;;;;84.88;41.38;;;;;;;3.07;61.29;99729.75;5133359;27;20106;-75
2021/12/11 09:21:48;;;;;;;88.35;40.10;;;;;;;3.14;61.33;99732.91;5130701;27;20062;-76
2021/12/11 09:24:23;;;;;;;80.13;39.85;;;;;;;3.17;61.25;99738.81;5126159;28;20047;-72
2021/12/11 09:26:57;;;;;;;96.35;45.13;;;;;;;3.16;61.41;99729.28;5123819;28;20099;-72
2021/12/11 09:29:32;;;;;;;89.75;41.10;;;;;;;3.19;61.37;99736.97;5123350;28;20129;-87
2021/12/11 09:32:08;;;;;;;95.43;41.33;;;;;;;3.33;61.17;99735.41;5129261;28;20720;-77
2021/12/11 09:34:39;;;;;;;98.97;44.00;;;;;;;3.42;61.05;99733.19;5137188;28;20058;-74
2021/12/11 09:37:12;;;;;;;90.22;45.58;;;;;;;3.60;60.95;99746.19;5130396;28;20118;-77
2021/12/11 09:39:44;;;;;;;90.18;43.83;;;;;;;3.70;60.98;99752.66;5131720;28;20248;-83
2021/12/11 09:42:13;;;;;;;111.03;47.35;;;;;;;3.97;60.94;99747.72;5128083;27;20122;-77
2021/12/11 09:44:46;;;;;;;87.18;44.05;;;;;;;4.24;60.27;99749.78;5140773;27;20114;-74
2021/12/11 09:47:19;;;;;;;85.38;44.10;;;;;;;4.44;60.16;99747.88;5138182;27;20244;-76
2021/12/11 09:49:52;;;;;;;90.55;45.10;;;;;;;4.59;59.80;99753.09;5128924;27;20051;-72
2021/12/11 09:52:24;;;;;;;75.80;43.72;;;;;;;4.71;59.75;99740.25;5127469;27;20046;-70
2021/12/11 09:54:55;;;;;;;84.30;40.97;;;;;;;4.81;59.77;99746.66;5133769;27;20070;-73
2021/12/11 09:57:25;;;;;;;78.35;40.67;;;;;;;4.89;59.82;99748.81;5130222;27;20038;-73
2021/12/11 09:59:58;;;;;;;74.45;39.83;;;;;;;4.90;59.80;99750.53;5132979;27;20078;-74
2021/12/11 10:02:29;;;;;;;70.82;38.17;;;;;;;4.97;59.88;99752.69;5136208;27;20055;-72
2021/12/11 10:05:01;;;;;;;83.95;39.42;;;;;;;5.10;59.81;99749.38;5133412;27;20482;-72
2021/12/11 10:07:35;;;;;;;77.13;40.28;;;;;;;5.17;59.76;99755.94;5133639;27;20095;-74
2021/12/11 10:10:12;;;;;;;85.93;43.63;;;;;;;5.31;59.56;99761.22;5134935;27;20049;-75
2021/12/11 10:12:43;;;;;;;79.82;47.83;;;;;;;5.43;59.20;99764.88;5134073;27;20046;-75
2021/12/11 10:15:18;;;;;;;83.88;49.88;;;;;;;5.61;59.03;99767.34;5106019;27;20203;-75
2021/12/11 10:17:50;;;;;;;85.28;47.17;;;;;;;5.67;59.03;99762.59;5102673;28;20057;-73
2021/12/11 10:20:22;;;;;;;81.30;46.45;;;;;;;5.80;58.86;99762.69;5109382;27;20126;-74
2021/12/11 10:22:51;;;;;;;85.25;48.60;;;;;;;5.92;58.60;99763.69;5103947;28;20662;-72
2021/12/11 10:25:21;;;;;;;83.13;46.63;;;;;;;6.01;58.45;99776.28;5102036;28;20305;-77
2021/12/11 10:27:51;;;;;;;82.95;46.40;;;;;;;5.97;58.49;99784.44;5100338;28;20773;-76
2021/12/11 10:30:23;;;;;;;81.07;47.22;;;;;;;5.91;58.84;99790.88;5103307;28;20100;-77
2021/12/11 10:32:51;;;;;;;87.10;51.30;;;;;;;5.97;58.60;99795.75;5102918;28;20044;-76
2021/12/11 10:35:21;;;;;;;87.72;51.13;;;;;;;6.13;58.53;99795.66;5103813;28;20054;-76
2021/12/11 10:37:48;;;;;;;73.68;46.67;;;;;;;6.46;58.12;99795.38;5107161;27;20118;-75
2021/12/11 10:40:19;;;;;;;86.03;50.20;;;;;;;6.93;57.33;99801.13;5110137;27;20063;-75
2021/12/11 10:42:52;;;;;;;80.10;48.35;;;;;;;7.22;56.65;99795.75;5109600;27;20054;-76
2021/12/11 10:45:21;;;;;;;68.00;48.28;;;;;;;7.23;56.45;99803.53;5111654;27;20074;-75
2021/12/11 10:47:51;;;;;;;82.82;50.38;;;;;;;7.07;56.91;99819.44;5109487;27;20083;-75
2021/12/11 10:50:24;;;;;;;78.70;45.78;;;;;;;7.02;57.06;99812.81;5111468;27;20161;-73
2021/12/11 10:52:53;;;;;;;80.57;45.00;;;;;;;6.95;57.34;99801.91;5099209;28;20056;-74
2021/12/11 10:55:23;;;;;;;86.97;50.40;;;;;;;6.73;57.31;99801.56;5101421;28;20367;-75
2021/12/11 10:57:54;;;;;;;78.22;46.85;;;;;;;6.53;57.94;99819.41;5107574;27;20322;-73
2021/12/11 11:00:27;;;;;;;74.82;47.22;;;;;;;6.54;58.21;99823.75;5120938;27;20126;-80
2021/12/11 11:02:55;;;;;;;77.18;45.83;;;;;;;6.47;58.02;99822.44;5121271;27;20047;-75
2021/12/11 11:05:24;;;;;;;75.47;46.80;;;;;;;6.45;58.15;99827.78;5126156;27;20070;-75
2021/12/11 11:07:51;;;;;;;72.57;45.60;;;;;;;6.42;58.30;99827.97;5136991;27;20125;-81
2021/12/11 11:10:22;;;;;;;75.88;43.75;;;;;;;6.37;58.34;99824.78;5120923;27;20039;-76
2021/12/11 11:12:53;;;;;;;86.82;49.20;;;;;;;6.32;58.20;99819.81;5125719;27;20150;-75
2021/12/11 11:15:26;;;;;;;91.32;51.65;;;;;;;6.24;58.35;99808.94;5129364;27;20053;-81
2021/12/11 11:17:54;;;;;;;89.50;57.10;;;;;;;6.08;58.24;99811.66;5130673;27;20122;-75
2021/12/11 11:20:27;;;;;;;98.53;58.08;;;;;;;5.92;58.43;99811.75;5124941;27;20788;-77
2021/12/11 11:22:54;;;;;;;94.50;59.83;;;;;;;5.88;58.65;99806.78;5126402;27;20047;-74
2021/12/11 11:25:24;;;;;;;103.15;59.55;;;;;;;5.88;58.90;99812.00;5126422;27;20043;-80
2021/12/11 11:27:57;;;;;;;120.38;66.88;;;;;;;5.90;58.82;99829.31;5125810;27;20051;-78
2021/12/11 11:30:31;;;;;;;98.15;60.67;;;;;;;5.94;58.78;99833.47;5117426;27;20051;-75
2021/12/11 11:32:59;;;;;;;99.47;58.35;;;;;;;5.88;58.85;99832.97;5116179;27;20074;-76
2021/12/11 11:35:31;;;;;;;94.35;54.60;;;;;;;5.86;59.05;99838.31;5109055;28;20058;-75
2021/12/11 11:38:02;;;;;;;99.00;55.72;;;;;;;5.85;59.12;99848.88;5104741;27;20647;-75